Delphos, OH (45833)

12:01 PM EDT on June 23, 2017 (GMT -0400)
Delphos | | Change Station

Elev 764 ft 40.85 °N, 84.35 °W | Updated 1 second ago

Rain
Rain
70.9 °F
Feels Like 70.9 °F
N
3.0
Wind Variable Wind from ESE

Today
High -- | Low -- °F
--% Chance of Precip.
Yesterday
High -- | Low -- °F
Precip. -- in
Pressure 29.66 in
Visibility 5.0 miles
Clouds Few 1400 ft
Scattered Clouds 5000 ft
Overcast 11000 ft
Dew Point 69 °F
Humidity 95%
Rainfall 0.93 in
Snow Depth Not available.
6:06 AM 9:12 PM
Waning Crescent, 0% visible
METAR KAOH 231553Z AUTO 18005KT 5SM RA BR FEW014 SCT050 OVC110 21/21 A2968 RMK AO2 SLP042 P0023 T02110211
Pressure 29.66 in
Visibility 5.0 miles
Clouds Few 1400 ft
Scattered Clouds 5000 ft
Overcast 11000 ft
Dew Point 69 °F
Humidity 95%
Rainfall 0.93 in
Snow Depth Not available.
6:06 AM 9:12 PM
Waning Crescent, 0% visible
METAR KAOH 231553Z AUTO 18005KT 5SM RA BR FEW014 SCT050 OVC110 21/21 A2968 RMK AO2 SLP042 P0023 T02110211

Get Severe Weather Alerts

Thanks for signing up!

Be on the lookout for a verification email in your inbox.

You'll start receiving the daily forecast at 6 AM.

×

10-Day Weather Forecast

Almanac

Astronomy

Jun. 23, 2017 Rise Set
Actual Time
Civil Twilight
Nautical Twilight
Astronomical Twilight
Moon
Length of Visible Light
Length of Day
Tomorrow will be .
, % of the Moon is Illuminated

Today's Extremes

State Highs State Lows

Community

WunderPhotos

Category 6

Welcome to Category 6. This is the collective home for Weather Underground's featured writeups by Dr. Jeff Masters (right), Bob Henson (left), Chris Burt, and other regular contributors.

Nearby

Air Quality

  Air Quality AQ Index Pollutant
Not available.

Snow Depth

Station Depth Elevation

Earthquake Activity

City Distance Mag. Time & Date
Minimum magnitude displayed is 2.5.

Coastal Water Temperatures

Place Temperature

Stations

Nearby Weather Stations

Station Location Temp. Windchill Dew Point Humidity Wind Precip. Elev Updated Type
                   

Watches & Warnings

There are currently no watches in effect.